Cozumel, Mexico

2:08 PM EST on July 28, 2016 (GMT -0500)
APRSWXNET | | Change Station

Elev 13 ft 20.50 °N, 86.96 °W | Updated 20 minutes ago

Mostly Cloudy
Mostly Cloudy
88 °F
Feels Like 100 °F
N
6
Wind Variable Wind from ESE
Gusts 13.0 mph

Today
High -- | Low -- °F
--% Chance of Precip.
Yesterday
High -- | Low -- °F
Precip. -- in
Pressure 29.97 in
Visibility 7.0 miles
Clouds Mostly Cloudy 2000 ft
Heat Index 100 °F
Dew Point 77 °F
Humidity 70%
Rainfall in
Snow Depth Not available.
6:21 AM 7:27 PM
Waning Crescent, 29% visible
METAR MMUN 281845Z 08010KT 7SM BKN020 31/25 A2997 RMK 8/100 MDT CU CS W
Pressure 29.97 in
Visibility 7.0 miles
Clouds Mostly Cloudy 2000 ft
Heat Index 100 °F
Dew Point 77 °F
Humidity 70%
Rainfall in
Snow Depth Not available.
6:21 AM 7:27 PM
Waning Crescent, 29% visible
METAR MMUN 281845Z 08010KT 7SM BKN020 31/25 A2997 RMK 8/100 MDT CU CS W

10-Day Weather Forecast

No radar image for this location.
×

Almanac

Astronomy

Jul. 28, 2016 Rise Set
Actual Time
Civil Twilight
Nautical Twilight
Astronomical Twilight
Moon
Length of Visible Light
Length of Day
Tomorrow will be .
, % of the Moon is Illuminated

Today's Extremes

Country Highs Country Lows

Community

WunderPhotos

Upload Photos

1,928,186 photos uploaded!

WunderBlog® & News

Nearby

Air Quality

  Air Quality AQ Index Pollutant
Not available.

Snow Depth

Station Depth Elevation

Earthquake Activity

City Distance Mag. Time & Date
Minimum magnitude displayed is 2.5.

Coastal Water Temperatures

Place Temperature

Stations

Nearby Weather Stations

Station Location Temp. Windchill Dew Point Humidity Wind Precip. Elev Updated Type